Time;durP1;ratioP1;P1;durP2;ratioP2;P2;SDS_P1;SDS_P2;PMS_P1;PMS_P2;Temp;Humidity;BMP_temperature;BMP_pressure;BME280_temperature;BME280_humidity;BME280_pressure;Samples;Min_cycle;Max_cycle;Signal;HPM_P1;HPM_P2
2022/10/23 00:00:33;;;;;;;23.55;12.27;;;;;;;11.16;100.00;101198.56;5056730;28;20151;-64
2022/10/23 00:02:59;;;;;;;24.10;11.70;;;;;;;11.22;100.00;101205.69;5056587;28;20048;-63
2022/10/23 00:05:26;;;;;;;22.92;12.13;;;;;;;11.22;100.00;101210.09;5056487;28;20486;-64
2022/10/23 00:07:53;;;;;;;25.67;13.07;;;;;;;11.24;100.00;101203.94;5052477;28;20057;-65
2022/10/23 00:10:20;;;;;;;25.10;13.68;;;;;;;11.22;100.00;101197.72;5056537;28;20040;-64
2022/10/23 00:12:46;;;;;;;25.50;12.93;;;;;;;11.21;100.00;101198.59;5056401;28;20025;-65
2022/10/23 00:15:13;;;;;;;26.27;12.88;;;;;;;11.22;100.00;101199.50;5056083;28;20059;-65
2022/10/23 00:17:38;;;;;;;24.88;12.68;;;;;;;11.23;100.00;101193.34;5056405;28;20025;-65
2022/10/23 00:20:06;;;;;;;24.90;12.52;;;;;;;11.18;100.00;101190.66;5056517;28;20027;-65
2022/10/23 00:22:31;;;;;;;23.65;11.75;;;;;;;11.18;100.00;101201.22;5055783;28;20021;-65
2022/10/23 00:24:56;;;;;;;23.45;11.23;;;;;;;11.15;100.00;101199.47;5056478;28;20032;-65
2022/10/23 00:27:22;;;;;;;23.20;11.35;;;;;;;11.17;100.00;101194.19;5056249;28;20021;-65
2022/10/23 00:29:47;;;;;;;25.15;11.57;;;;;;;11.14;100.00;101195.03;5055973;28;20484;-65
2022/10/23 00:32:13;;;;;;;23.77;11.82;;;;;;;11.19;100.00;101196.84;5056029;28;20039;-65
2022/10/23 00:34:38;;;;;;;22.90;11.07;;;;;;;11.18;100.00;101201.22;5055961;28;20119;-65
2022/10/23 00:37:03;;;;;;;23.92;11.60;;;;;;;11.14;100.00;101197.69;5055878;28;20032;-65
2022/10/23 00:39:29;;;;;;;23.50;11.30;;;;;;;11.11;100.00;101189.72;5056031;28;20349;-66
2022/10/23 00:41:55;;;;;;;22.65;11.43;;;;;;;11.12;100.00;101193.25;5055611;28;20052;-66
2022/10/23 00:44:20;;;;;;;23.88;11.38;;;;;;;11.17;100.00;101186.25;5055538;28;20024;-66
2022/10/23 00:46:45;;;;;;;23.95;12.25;;;;;;;11.15;100.00;101188.88;5055431;28;20052;-66
2022/10/23 00:49:12;;;;;;;26.92;11.90;;;;;;;11.11;100.00;101186.19;5054242;28;20526;-66
2022/10/23 00:51:44;;;;;;;24.23;11.40;;;;;;;11.13;100.00;101187.97;5055369;28;20029;-66
2022/10/23 00:54:11;;;;;;;23.77;11.55;;;;;;;11.15;100.00;101191.53;5055729;28;20040;-67
2022/10/23 00:56:39;;;;;;;24.48;11.52;;;;;;;11.16;100.00;101188.00;5055357;28;20024;-66
2022/10/23 00:59:04;;;;;;;25.05;11.10;;;;;;;11.16;100.00;101189.75;5055345;28;20025;-66
2022/10/23 01:01:30;;;;;;;23.02;11.15;;;;;;;11.15;100.00;101183.59;5055721;28;20025;-67
2022/10/23 01:03:55;;;;;;;24.52;11.20;;;;;;;11.16;100.00;101185.34;5054943;28;20056;-66
2022/10/23 01:06:26;;;;;;;25.13;10.88;;;;;;;11.13;100.00;101181.81;5054563;28;20029;-68
2022/10/23 01:09:16;;;;;;;24.92;10.73;;;;;;;11.13;100.00;101177.38;5051394;28;20029;-67
2022/10/23 01:11:47;;;;;;;25.08;10.73;;;;;;;11.11;100.00;101187.09;5054348;28;20020;-67
2022/10/23 01:14:21;;;;;;;23.05;10.63;;;;;;;11.13;100.00;101184.44;5055052;28;20021;-67
2022/10/23 01:16:57;;;;;;;23.10;10.63;;;;;;;11.06;100.00;101180.84;5055033;28;20036;-67
2022/10/23 01:19:41;;;;;;;22.17;10.50;;;;;;;11.01;100.00;101172.03;5051404;28;20029;-67
2022/10/23 01:22:37;;;;;;;24.88;10.75;;;;;;;10.98;100.00;101174.66;5052986;28;20055;-66
2022/10/23 01:25:16;;;;;;;24.42;10.90;;;;;;;10.92;100.00;101177.22;5052319;28;20059;-67
2022/10/23 01:27:49;;;;;;;23.30;10.30;;;;;;;10.90;100.00;101173.69;5054806;28;20472;-66
2022/10/23 01:30:16;;;;;;;24.88;10.18;;;;;;;10.79;100.00;101169.19;5054782;28;20074;-66
2022/10/23 01:32:44;;;;;;;23.90;10.38;;;;;;;10.75;100.00;101166.50;5055008;28;20430;-66
2022/10/23 01:35:21;;;;;;;23.30;10.30;;;;;;;10.69;100.00;101159.41;5054553;28;20025;-66
2022/10/23 01:38:13;;;;;;;21.50;10.00;;;;;;;10.68;100.00;101160.28;5054559;28;20021;-66
2022/10/23 01:40:56;;;;;;;21.80;9.98;;;;;;;10.68;100.00;101160.28;5026621;28;20137;-66
2022/10/23 01:43:29;;;;;;;24.05;9.80;;;;;;;10.71;100.00;101149.72;5028395;28;20508;-67
2022/10/23 01:46:00;;;;;;;23.73;9.88;;;;;;;10.71;100.00;101144.44;5032439;28;20037;-66
2022/10/23 01:48:28;;;;;;;23.40;10.13;;;;;;;10.76;100.00;101133.88;5032168;28;20543;-66
2022/10/23 01:50:58;;;;;;;24.35;10.65;;;;;;;10.74;100.00;101141.81;5032533;28;20030;-66
2022/10/23 01:53:26;;;;;;;23.50;11.60;;;;;;;10.75;100.00;101133.00;5032247;28;20021;-66
2022/10/23 01:55:54;;;;;;;26.60;11.88;;;;;;;10.73;100.00;101126.84;5028177;28;20033;-66
2022/10/23 01:58:20;;;;;;;25.33;12.43;;;;;;;10.75;100.00;101129.50;5032372;28;20060;-66
2022/10/23 02:00:48;;;;;;;24.63;12.60;;;;;;;10.71;100.00;101141.78;5032156;28;20018;-66
2022/10/23 02:03:16;;;;;;;25.83;13.50;;;;;;;10.67;100.00;101141.75;5032017;28;20059;-66
2022/10/23 02:05:42;;;;;;;26.65;13.35;;;;;;;10.68;100.00;101139.13;5032215;28;20040;-66
2022/10/23 02:08:07;;;;;;;24.67;13.38;;;;;;;10.60;100.00;101141.72;5031933;28;20472;-66
2022/10/23 02:10:59;;;;;;;23.85;12.85;;;;;;;10.59;100.00;101133.75;5031967;28;20045;-66
2022/10/23 02:13:32;;;;;;;24.15;13.43;;;;;;;10.58;100.00;101138.16;5031930;28;20476;-65
2022/10/23 02:16:14;;;;;;;;;;;;;;;10.61;100.00;101134.66;5032028;28;20034;-65
2022/10/23 02:19:11;;;;;;;24.23;13.33;;;;;;;10.61;100.00;101137.28;5052069;28;19912;-66
2022/10/23 02:21:49;;;;;;;24.67;13.82;;;;;;;10.56;100.00;101126.69;5051854;28;20021;-66
2022/10/23 02:24:19;;;;;;;24.98;14.70;;;;;;;10.55;100.00;101127.53;5053647;28;20056;-65
2022/10/23 02:26:52;;;;;;;23.83;12.70;;;;;;;10.54;100.00;101131.09;5054102;28;20026;-65
2022/10/23 02:29:40;;;;;;;30.50;18.10;;;;;;;10.62;100.00;101129.38;5053816;28;20032;-65
2022/10/23 02:32:08;;;;;;;29.23;17.60;;;;;;;10.67;100.00;101110.91;5051519;28;20112;-66
2022/10/23 02:34:34;;;;;;;29.58;17.17;;;;;;;10.70;100.00;101110.91;5053399;28;20029;-65
2022/10/23 02:36:59;;;;;;;27.08;15.80;;;;;;;10.75;100.00;101110.97;5053759;28;20464;-64
2022/10/23 02:39:26;;;;;;;28.08;16.00;;;;;;;10.75;100.00;101108.34;5053645;28;20021;-65
2022/10/23 02:42:09;;;;;;;27.80;14.73;;;;;;;10.75;100.00;101100.41;5049314;28;20100;-65
2022/10/23 02:45:02;;;;;;;26.20;13.98;;;;;;;10.76;100.00;101087.19;5051003;28;20420;-64
2022/10/23 02:47:32;;;;;;;26.23;13.63;;;;;;;10.79;100.00;101070.44;5049792;28;20083;-65
2022/10/23 02:50:00;;;;;;;25.85;14.30;;;;;;;10.75;100.00;101066.91;5053163;28;20477;-65
2022/10/23 02:52:57;;;;;;;24.75;12.85;;;;;;;10.76;100.00;101054.56;5053701;28;20021;-64
2022/10/23 02:55:48;;;;;;;27.05;13.13;;;;;;;10.77;100.00;101054.56;5049349;28;20032;-65
2022/10/23 02:58:40;;;;;;;26.33;13.20;;;;;;;10.81;100.00;101051.06;5025779;28;20519;-65
2022/10/23 03:01:13;;;;;;;27.77;13.63;;;;;;;10.85;100.00;101044.06;5031028;28;20040;-65
2022/10/23 03:03:52;;;;;;;;;;;;;;;10.85;100.00;101044.06;5014742;28;20637;-65
2022/10/23 03:06:18;;;;;;;25.98;13.35;;;;;;;10.84;100.00;101038.78;5031118;28;20395;-65
2022/10/23 03:08:47;;;;;;;27.30;14.23;;;;;;;10.82;100.00;101034.34;5030876;28;20152;-65
2022/10/23 03:11:13;;;;;;;28.33;16.27;;;;;;;10.79;100.00;101029.03;5030817;28;20029;-65
2022/10/23 03:13:38;;;;;;;28.58;16.30;;;;;;;10.80;100.00;101022.88;5030820;28;20032;-63
2022/10/23 03:16:03;;;;;;;28.45;16.40;;;;;;;10.82;100.00;101026.41;5030901;28;20488;-65
2022/10/23 03:18:29;;;;;;;27.25;15.27;;;;;;;10.83;100.00;101024.63;5030691;28;20512;-65
2022/10/23 03:20:55;;;;;;;27.63;14.00;;;;;;;10.83;100.00;101022.00;5030842;28;20034;-65
2022/10/23 03:23:21;;;;;;;25.88;13.60;;;;;;;10.81;100.00;101016.69;5030543;28;20117;-65
2022/10/23 03:25:46;;;;;;;25.70;12.23;;;;;;;10.82;100.00;101015.84;5030644;28;20591;-65
2022/10/23 03:28:11;;;;;;;23.95;11.85;;;;;;;10.80;100.00;101014.94;5030369;28;20040;-65
2022/10/23 03:30:37;;;;;;;24.65;11.80;;;;;;;10.79;100.00;101012.25;5030537;28;20034;-66
2022/10/23 03:33:02;;;;;;;26.88;12.30;;;;;;;10.88;100.00;101014.09;5030543;28;20086;-66
2022/10/23 03:35:27;;;;;;;24.65;11.32;;;;;;;10.90;100.00;101012.34;5040037;28;20187;-65
2022/10/23 03:37:52;;;;;;;24.52;11.63;;;;;;;10.95;100.00;101007.94;5052838;28;20384;-66
2022/10/23 03:40:18;;;;;;;26.73;11.70;;;;;;;10.98;100.00;101002.72;5052435;28;20418;-65
2022/10/23 03:42:43;;;;;;;24.63;11.80;;;;;;;11.05;100.00;100999.19;5052591;28;20033;-66
2022/10/23 03:45:09;;;;;;;24.15;11.93;;;;;;;11.03;100.00;100998.31;5052566;28;20028;-66
2022/10/23 03:47:39;;;;;;;24.27;11.13;;;;;;;11.03;100.00;100992.16;5052232;28;20052;-65
2022/10/23 03:50:05;;;;;;;26.38;11.45;;;;;;;11.06;100.00;100995.66;5052627;28;20396;-66
2022/10/23 03:52:30;;;;;;;29.15;12.38;;;;;;;11.09;100.00;100989.53;5052534;28;20032;-66
2022/10/23 03:54:56;;;;;;;23.98;11.25;;;;;;;11.06;100.00;100993.03;5052454;28;20034;-65
2022/10/23 03:57:23;;;;;;;26.25;11.73;;;;;;;11.09;100.00;100986.88;5052567;28;20086;-66
2022/10/23 03:59:48;;;;;;;25.02;12.07;;;;;;;11.12;100.00;100985.09;5052689;28;20380;-65
2022/10/23 04:02:13;;;;;;;26.25;14.07;;;;;;;11.15;100.00;100978.94;5052551;28;20032;-63
2022/10/23 04:04:39;;;;;;;25.50;12.35;;;;;;;11.13;100.00;100976.31;5052493;28;20108;-66
2022/10/23 04:07:04;;;;;;;27.08;13.45;;;;;;;11.14;100.00;100980.72;5052340;28;20021;-66
2022/10/23 04:09:29;;;;;;;25.30;12.63;;;;;;;11.09;100.00;100963.94;5052509;28;20029;-66
2022/10/23 04:11:55;;;;;;;26.08;12.40;;;;;;;11.06;100.00;100952.47;5052229;28;20464;-65
2022/10/23 04:14:20;;;;;;;25.02;11.60;;;;;;;10.99;100.00;100944.53;5052217;28;20025;-67
2022/10/23 04:16:45;;;;;;;24.27;11.38;;;;;;;11.03;100.00;100955.97;5052525;28;20423;-67
2022/10/23 04:19:11;;;;;;;23.13;10.95;;;;;;;10.98;100.00;100952.44;5052020;28;20025;-67
2022/10/23 04:21:36;;;;;;;25.23;11.43;;;;;;;10.95;100.00;100952.41;5052138;28;20029;-67
2022/10/23 04:24:01;;;;;;;23.05;10.60;;;;;;;10.94;100.00;100955.94;5052191;28;20029;-67
2022/10/23 04:26:27;;;;;;;23.67;10.90;;;;;;;10.97;100.00;100971.84;5052382;28;20029;-66
2022/10/23 04:28:52;;;;;;;25.10;11.60;;;;;;;10.94;100.00;100962.13;5052042;28;20108;-66
2022/10/23 04:31:17;;;;;;;24.85;11.43;;;;;;;11.02;100.00;100964.78;5052415;28;20037;-67
2022/10/23 04:33:42;;;;;;;22.98;11.20;;;;;;;11.05;100.00;100962.16;5052035;28;20062;-67
2022/10/23 04:36:08;;;;;;;24.35;11.45;;;;;;;11.09;100.00;100961.28;5052050;28;20499;-67
2022/10/23 04:38:33;;;;;;;25.80;11.90;;;;;;;11.06;100.00;100955.13;5051795;28;20065;-66
2022/10/23 04:40:59;;;;;;;25.35;12.38;;;;;;;11.10;100.00;100954.25;5054673;28;20049;-66
2022/10/23 04:43:24;;;;;;;26.02;12.98;;;;;;;11.12;100.00;100958.66;5055844;28;20075;-67
2022/10/23 04:45:49;;;;;;;26.58;13.60;;;;;;;11.13;100.00;100960.44;5055668;28;20048;-67
2022/10/23 04:48:15;;;;;;;26.63;13.07;;;;;;;11.12;100.00;100950.72;5055407;28;20045;-67
2022/10/23 04:50:40;;;;;;;31.23;13.73;;;;;;;11.13;100.00;100955.13;5055616;28;20052;-66
2022/10/23 04:53:08;;;;;;;25.65;13.13;;;;;;;11.05;100.00;100948.91;5055420;28;20025;-66
2022/10/23 04:55:33;;;;;;;25.60;12.90;;;;;;;11.02;100.00;100948.03;5055498;28;20028;-66
2022/10/23 04:57:58;;;;;;;25.88;13.52;;;;;;;11.05;100.00;100942.75;5055831;28;20028;-66
2022/10/23 05:00:24;;;;;;;24.27;12.73;;;;;;;11.00;100.00;100940.09;5055570;28;20021;-66
2022/10/23 05:02:49;;;;;;;25.98;13.05;;;;;;;10.98;100.00;100939.22;5055501;28;20051;-66
2022/10/23 05:05:15;;;;;;;26.90;13.23;;;;;;;10.95;100.00;100939.19;5055696;28;20029;-66
2022/10/23 05:07:40;;;;;;;25.10;13.30;;;;;;;10.93;100.00;100933.00;5055207;28;20100;-67
2022/10/23 05:10:06;;;;;;;26.90;13.18;;;;;;;10.97;100.00;100935.69;5055018;28;20535;-66
2022/10/23 05:12:31;;;;;;;25.38;13.57;;;;;;;11.03;100.00;100934.81;5055350;28;20021;-67
2022/10/23 05:14:57;;;;;;;28.27;13.80;;;;;;;11.04;100.00;100935.69;5055237;28;20029;-66
2022/10/23 05:17:27;;;;;;;25.70;13.25;;;;;;;11.08;100.00;100930.44;5055261;28;20025;-67
2022/10/23 05:19:56;;;;;;;23.80;12.48;;;;;;;11.11;100.00;100930.44;5055412;28;20526;-66
2022/10/23 05:22:24;;;;;;;25.23;12.38;;;;;;;11.12;100.00;100929.56;5054833;28;20033;-66
2022/10/23 05:24:50;;;;;;;28.33;11.57;;;;;;;11.08;100.00;100918.97;5054796;28;20035;-66
2022/10/23 05:27:16;;;;;;;25.38;11.25;;;;;;;11.15;100.00;100923.38;5054987;28;20361;-66
2022/10/23 05:29:41;;;;;;;24.85;11.10;;;;;;;11.15;100.00;100918.09;5054904;28;20025;-67
2022/10/23 05:32:08;;;;;;;26.20;10.73;;;;;;;11.15;100.00;100926.03;5054812;28;20048;-67
2022/10/23 05:34:35;;;;;;;23.85;10.50;;;;;;;11.15;100.00;100913.72;5054929;28;20052;-66
2022/10/23 05:37:02;;;;;;;23.95;10.00;;;;;;;11.16;100.00;100919.88;5054706;28;20028;-66
2022/10/23 05:39:27;;;;;;;27.73;10.38;;;;;;;11.19;100.00;100919.88;5054480;28;20033;-67
2022/10/23 05:41:53;;;;;;;24.25;10.02;;;;;;;11.16;100.00;100909.28;5054954;28;20075;-67
2022/10/23 05:44:19;;;;;;;24.42;9.93;;;;;;;11.13;100.00;100912.81;5054688;28;20025;-66
2022/10/23 05:46:45;;;;;;;23.77;10.02;;;;;;;11.13;100.00;100915.44;5054299;28;20021;-66
2022/10/23 05:49:10;;;;;;;23.50;10.20;;;;;;;11.08;100.00;100911.94;5054935;28;20044;-66
2022/10/23 05:51:37;;;;;;;24.13;10.30;;;;;;;11.04;100.00;100907.50;5054238;28;20021;-67
2022/10/23 05:54:06;;;;;;;25.40;10.68;;;;;;;11.06;100.00;100910.16;5054369;28;20017;-66
2022/10/23 05:56:36;;;;;;;26.10;10.63;;;;;;;11.07;100.00;100906.63;5054508;28;20032;-67
2022/10/23 05:59:02;;;;;;;24.50;10.13;;;;;;;11.04;100.00;100904.84;5054385;28;20534;-66
2022/10/23 06:01:27;;;;;;;24.67;10.20;;;;;;;11.07;100.00;100898.69;5054257;28;20029;-67
2022/10/23 06:03:53;;;;;;;22.60;9.70;;;;;;;11.07;100.00;100904.00;5054570;28;20021;-66
2022/10/23 06:06:18;;;;;;;23.65;10.73;;;;;;;11.05;100.00;100896.00;5054203;28;20381;-67
2022/10/23 06:08:43;;;;;;;23.80;10.48;;;;;;;11.06;100.00;100892.50;5053136;28;20484;-66
2022/10/23 06:11:12;;;;;;;23.02;10.48;;;;;;;11.04;100.00;100886.34;5053924;28;20499;-67
2022/10/23 06:13:37;;;;;;;24.10;10.40;;;;;;;11.06;100.00;100888.97;5054101;28;20120;-67
2022/10/23 06:16:15;;;;;;;23.17;10.13;;;;;;;11.07;100.00;100886.34;5053925;28;20078;-66
2022/10/23 06:18:40;;;;;;;23.15;10.63;;;;;;;11.11;100.00;100887.22;5054103;28;20017;-67
2022/10/23 06:21:06;;;;;;;23.90;10.20;;;;;;;11.07;100.00;100886.34;5053722;28;20047;-67
2022/10/23 06:23:35;;;;;;;23.50;9.38;;;;;;;11.15;100.00;100886.34;5053531;28;20028;-65
2022/10/23 06:26:00;;;;;;;24.50;10.10;;;;;;;11.23;100.00;100883.75;5054104;28;20104;-65
2022/10/23 06:28:26;;;;;;;21.75;9.10;;;;;;;11.27;100.00;100877.56;5053681;28;20170;-64
2022/10/23 06:30:51;;;;;;;22.20;8.93;;;;;;;11.35;100.00;100881.13;5053545;28;20028;-64
2022/10/23 06:33:16;;;;;;;22.30;8.25;;;;;;;11.41;100.00;100878.47;5053769;28;20020;-65
2022/10/23 06:35:42;;;;;;;23.20;9.07;;;;;;;11.45;100.00;100872.31;5053507;28;20388;-65
2022/10/23 06:38:09;;;;;;;22.67;8.40;;;;;;;11.49;100.00;100863.50;5053351;28;20028;-65
2022/10/23 06:40:35;;;;;;;23.33;8.10;;;;;;;11.52;100.00;100865.25;5053496;28;20040;-65
2022/10/23 06:43:00;;;;;;;22.52;8.05;;;;;;;11.55;100.00;100853.75;5053490;28;20025;-65
2022/10/23 06:45:26;;;;;;;21.25;7.70;;;;;;;11.60;100.00;100855.53;5053395;28;20024;-65
2022/10/23 06:47:51;;;;;;;20.92;8.15;;;;;;;11.63;100.00;100849.38;5053430;28;20080;-65
2022/10/23 06:50:17;;;;;;;21.13;8.02;;;;;;;11.68;100.00;100844.97;5053370;28;20025;-64
2022/10/23 06:52:43;;;;;;;20.50;7.13;;;;;;;11.74;100.00;100850.25;5053513;28;20471;-65
2022/10/23 06:55:09;;;;;;;22.73;7.47;;;;;;;11.79;100.00;100847.59;5053149;28;20116;-64
2022/10/23 06:57:34;;;;;;;21.10;7.60;;;;;;;11.84;100.00;100849.38;5053076;28;20024;-65
2022/10/23 07:00:00;;;;;;;21.33;7.32;;;;;;;11.88;100.00;100842.28;5053278;28;20403;-65
2022/10/23 07:02:25;;;;;;;24.45;7.25;;;;;;;11.90;100.00;100835.25;5052396;28;20029;-65
2022/10/23 07:04:50;;;;;;;20.02;6.95;;;;;;;11.93;100.00;100839.66;5052984;28;20085;-64
2022/10/23 07:07:16;;;;;;;21.77;6.93;;;;;;;11.97;100.00;100841.41;5053471;28;20036;-65
2022/10/23 07:09:41;;;;;;;21.38;7.25;;;;;;;12.00;100.00;100847.63;5052765;28;20021;-65
2022/10/23 07:12:07;;;;;;;21.10;6.88;;;;;;;12.07;100.00;100850.25;5052849;28;20511;-65
2022/10/23 07:14:32;;;;;;;20.42;7.10;;;;;;;12.09;100.00;100843.19;5052857;28;20024;-64
2022/10/23 07:16:58;;;;;;;20.35;6.85;;;;;;;12.13;100.00;100842.28;5052899;28;20017;-65
2022/10/23 07:19:23;;;;;;;21.15;6.82;;;;;;;12.17;100.00;100844.94;5052696;28;20025;-65
2022/10/23 07:21:50;;;;;;;21.90;7.00;;;;;;;12.19;100.00;100832.56;5052953;28;20036;-64
2022/10/23 07:24:15;;;;;;;21.17;6.90;;;;;;;12.24;100.00;100834.31;5052549;28;20472;-65
2022/10/23 07:26:40;;;;;;;22.85;7.20;;;;;;;12.27;100.00;100839.63;5052859;28;20040;-64
2022/10/23 07:29:06;;;;;;;20.73;7.13;;;;;;;12.30;100.00;100829.00;5052748;28;20052;-65
2022/10/23 07:31:32;;;;;;;21.10;7.38;;;;;;;12.35;100.00;100828.09;5052475;28;20384;-65
2022/10/23 07:33:57;;;;;;;20.45;8.07;;;;;;;12.40;100.00;100822.78;5052770;28;20029;-65
2022/10/23 07:36:23;;;;;;;20.25;8.07;;;;;;;12.45;100.00;100821.00;5052497;28;20053;-64
2022/10/23 07:38:49;;;;;;;22.73;8.50;;;;;;;12.51;100.00;100818.31;5052818;28;20029;-64
2022/10/23 07:41:14;;;;;;;23.90;8.18;;;;;;;12.57;100.00;100828.03;5052420;28;20551;-64
2022/10/23 07:43:40;;;;;;;23.40;9.10;;;;;;;12.59;100.00;100820.94;5052403;28;20116;-65
2022/10/23 07:46:07;;;;;;;21.77;9.10;;;;;;;12.63;100.00;100819.16;5052489;28;20024;-65
2022/10/23 07:48:32;;;;;;;23.45;9.93;;;;;;;12.67;100.00;100818.28;5052468;28;20049;-66
2022/10/23 07:51:00;;;;;;;22.55;9.88;;;;;;;12.71;100.00;100815.59;5052397;28;20036;-65
2022/10/23 07:53:26;;;;;;;22.15;9.98;;;;;;;12.76;100.00;100818.22;5048146;28;20491;-66
2022/10/23 07:55:53;;;;;;;22.77;9.70;;;;;;;12.82;100.00;100819.94;5052368;28;20057;-67
2022/10/23 07:58:19;;;;;;;22.92;9.85;;;;;;;12.85;100.00;100819.94;5052298;28;20021;-66
2022/10/23 08:00:50;;;;;;;22.73;9.65;;;;;;;12.94;100.00;100819.00;5052320;28;20438;-67
2022/10/23 08:03:16;;;;;;;21.30;9.38;;;;;;;13.01;100.00;100812.78;5052589;28;20033;-66
2022/10/23 08:05:41;;;;;;;23.08;9.98;;;;;;;13.07;100.00;100810.06;5052313;28;20025;-66
2022/10/23 08:08:07;;;;;;;21.77;9.50;;;;;;;13.13;100.00;100807.38;5052430;28;20372;-66
2022/10/23 08:10:32;;;;;;;21.00;9.13;;;;;;;13.20;100.00;100800.25;5052621;28;20086;-64
2022/10/23 08:12:57;;;;;;;22.10;9.23;;;;;;;13.27;100.00;100801.09;5052440;28;20033;-64
2022/10/23 08:15:23;;;;;;;20.38;9.23;;;;;;;13.34;100.00;100800.13;5055254;28;20430;-65
2022/10/23 08:17:48;;;;;;;22.15;8.93;;;;;;;13.41;100.00;100807.19;5056530;28;20484;-65
2022/10/23 08:20:13;;;;;;;21.33;8.10;;;;;;;13.47;100.00;100807.16;5056165;28;20025;-64
2022/10/23 08:22:39;;;;;;;20.65;8.02;;;;;;;13.52;100.00;100802.69;5055809;28;20048;-65
2022/10/23 08:25:05;;;;;;;21.85;7.40;;;;;;;13.55;100.00;100801.78;5056116;28;20051;-65
2022/10/23 08:27:30;;;;;;;20.77;7.20;;;;;;;13.63;100.00;100801.72;5055961;28;20104;-65
2022/10/23 08:29:55;;;;;;;20.45;7.32;;;;;;;13.65;100.00;100798.16;5050367;28;20040;-64
2022/10/23 08:32:21;;;;;;;20.75;7.18;;;;;;;13.65;100.00;100795.50;5054787;28;20028;-65
2022/10/23 08:34:46;;;;;;;22.88;7.10;;;;;;;13.62;100.00;100795.53;5055793;28;20472;-64
2022/10/23 08:37:11;;;;;;;20.67;6.93;;;;;;;13.58;100.00;100784.03;5056000;28;20068;-63
2022/10/23 08:39:37;;;;;;;20.83;7.25;;;;;;;13.56;100.00;100785.84;5056157;28;20116;-67
2022/10/23 08:42:02;;;;;;;22.33;7.47;;;;;;;13.56;100.00;100775.22;5055520;28;20051;-66
2022/10/23 08:44:30;;;;;;;20.77;7.65;;;;;;;13.58;100.00;100772.53;5055712;28;20174;-66
2022/10/23 08:47:02;;;;;;;19.75;7.13;;;;;;;13.62;100.00;100773.41;5051422;28;20041;-66
2022/10/23 08:49:31;;;;;;;21.48;7.43;;;;;;;13.64;100.00;100772.47;5051782;28;20036;-66
2022/10/23 08:51:59;;;;;;;20.02;7.30;;;;;;;13.70;100.00;100776.84;5051605;28;20040;-66
2022/10/23 08:54:50;;;;;;;20.40;6.90;;;;;;;13.81;100.00;100774.97;5055563;28;20550;-65
2022/10/23 08:57:20;;;;;;;20.30;7.07;;;;;;;13.85;100.00;100766.09;5044549;28;20390;-66
2022/10/23 08:59:51;;;;;;;22.75;7.18;;;;;;;13.89;100.00;100773.13;5055413;28;20111;-66
2022/10/23 09:02:37;;;;;;;20.52;6.90;;;;;;;13.93;100.00;100763.34;5055537;28;20028;-65
2022/10/23 09:05:03;;;;;;;21.83;7.32;;;;;;;13.92;100.00;100767.78;5052307;28;20426;-67
2022/10/23 09:07:38;;;;;;;20.15;7.10;;;;;;;13.93;100.00;100755.38;5055278;28;20107;-66
2022/10/23 09:10:16;;;;;;;21.55;6.70;;;;;;;13.95;100.00;100750.94;5052279;28;20032;-66
2022/10/23 09:12:41;;;;;;;20.60;6.97;;;;;;;14.04;100.00;100744.63;5055381;28;20021;-66
2022/10/23 09:15:13;;;;;;;19.90;6.25;;;;;;;14.19;100.00;100749.75;5054977;28;20120;-66
2022/10/23 09:17:41;;;;;;;20.38;7.30;;;;;;;14.29;100.00;100740.75;5054742;28;20032;-66
2022/10/23 09:20:21;;;;;;;23.67;7.82;;;;;;;14.37;100.00;100739.78;5054327;28;20024;-66
2022/10/23 09:22:48;;;;;;;19.48;6.90;;;;;;;14.41;100.00;100739.72;5054840;28;20402;-66
2022/10/23 09:25:26;;;;;;;21.00;7.40;;;;;;;14.42;100.00;100727.31;5054030;28;20515;-65
2022/10/23 09:27:55;;;;;;;21.83;6.75;;;;;;;14.44;100.00;100726.38;5055007;28;20046;-65
2022/10/23 09:30:27;;;;;;;19.40;6.55;;;;;;;14.48;100.00;100729.88;5054765;28;20025;-65
2022/10/23 09:32:53;;;;;;;20.40;7.15;;;;;;;14.50;100.00;100725.41;5054931;28;20031;-65
2022/10/23 09:35:23;;;;;;;19.80;6.80;;;;;;;14.47;100.00;100722.81;5054501;28;20461;-66
2022/10/23 09:37:52;;;;;;;19.38;6.57;;;;;;;14.49;100.00;100715.69;5051376;28;20040;-65
2022/10/23 09:40:29;;;;;;;18.98;6.75;;;;;;;14.51;100.00;100708.56;5054089;28;20102;-65
2022/10/23 09:43:12;;;;;;;20.50;6.93;;;;;;;14.54;100.00;100697.88;5050643;28;20111;-65
2022/10/23 09:45:41;;;;;;;19.98;7.00;;;;;;;14.58;100.00;100698.72;5052353;28;20032;-65
2022/10/23 09:48:11;;;;;;;19.77;7.28;;;;;;;14.64;100.00;100698.66;5054146;28;20037;-64
2022/10/23 09:50:36;;;;;;;19.63;7.40;;;;;;;14.63;100.00;100697.81;5054388;28;20126;-65
2022/10/23 09:53:02;;;;;;;19.77;6.70;;;;;;;14.60;100.00;100704.91;5054624;28;20472;-65
2022/10/23 09:55:28;;;;;;;21.85;6.75;;;;;;;14.60;100.00;100691.59;5054211;28;20052;-63
2022/10/23 09:57:54;;;;;;;19.77;6.38;;;;;;;14.68;100.00;100692.41;5054299;28;20349;-67
2022/10/23 10:00:23;;;;;;;19.52;6.30;;;;;;;14.79;100.00;100689.56;5054276;28;20057;-67
2022/10/23 10:02:59;;;;;;;19.20;6.30;;;;;;;14.89;100.00;100688.53;5054031;28;20376;-67
2022/10/23 10:05:33;;;;;;;19.30;6.25;;;;;;;14.89;100.00;100672.56;5050382;28;20027;-67
2022/10/23 10:08:02;;;;;;;21.30;6.43;;;;;;;14.89;100.00;100661.91;5050742;28;20376;-64
2022/10/23 10:10:34;;;;;;;20.13;6.32;;;;;;;14.93;100.00;100665.41;5053748;28;20134;-67
2022/10/23 10:13:13;;;;;;;19.88;6.38;;;;;;;14.96;100.00;100660.03;5053843;28;20024;-67
2022/10/23 10:15:51;;;;;;;19.42;6.38;;;;;;;15.00;100.00;100643.13;5054085;28;20052;-67
2022/10/23 10:18:31;;;;;;;18.63;6.13;;;;;;;15.04;100.00;100641.25;5053797;28;20060;-67
2022/10/23 10:21:09;;;;;;;18.42;6.20;;;;;;;15.09;100.00;100650.94;5050274;28;20116;-67
2022/10/23 10:23:54;;;;;;;21.55;6.20;;;;;;;15.13;100.00;100638.44;5051471;28;20151;-65
2022/10/23 10:26:44;;;;;;;19.25;6.30;;;;;;;15.17;100.00;100629.47;5053616;28;20036;-66
2022/10/23 10:29:24;;;;;;;20.30;6.28;;;;;;;15.24;100.00;100636.47;5051910;28;20029;-67
2022/10/23 10:32:08;;;;;;;19.83;5.90;;;;;;;15.30;100.00;100636.38;5053948;28;20112;-65
2022/10/23 10:34:51;;;;;;;18.30;6.15;;;;;;;15.38;100.00;100643.31;5050969;28;20021;-68
2022/10/23 10:37:38;;;;;;;23.08;6.65;;;;;;;15.50;100.00;100643.97;5053665;28;20029;-67
2022/10/23 10:40:18;;;;;;;19.83;6.90;;;;;;;15.66;100.00;100635.69;5051132;28;20041;-66
2022/10/23 10:43:19;;;;;;;20.85;6.55;;;;;;;15.85;100.00;100629.09;5053684;28;20056;-65
2022/10/23 10:45:52;;;;;;;18.77;6.40;;;;;;;16.05;100.00;100625.13;5048492;28;20041;-64
2022/10/23 10:48:40;;;;;;;20.08;6.35;;;;;;;16.27;100.00;100614.84;5045354;28;20055;-66
2022/10/23 10:51:12;;;;;;;19.10;6.35;;;;;;;16.42;100.00;100613.63;5046017;28;20039;-65
2022/10/23 10:54:22;;;;;;;18.88;6.00;;;;;;;16.73;100.00;100608.44;5053614;28;20104;-66
2022/10/23 10:56:47;;;;;;;18.23;6.18;;;;;;;17.12;100.00;100606.59;5030698;28;20548;-66
2022/10/23 10:59:23;;;;;;;17.95;5.85;;;;;;;17.36;100.00;100599.72;5031188;28;20120;-66
2022/10/23 11:02:12;;;;;;;18.48;5.45;;;;;;;17.69;100.00;100597.91;5031156;28;20026;-65
2022/10/23 11:04:51;;;;;;;19.55;5.82;;;;;;;18.06;100.00;100596.81;5029608;28;20557;-66
2022/10/23 11:07:22;;;;;;;16.67;5.22;;;;;;;18.28;100.00;100614.88;5031001;28;20069;-65
2022/10/23 11:09:48;;;;;;;17.10;4.97;;;;;;;18.34;100.00;100603.97;5030722;28;20025;-66
2022/10/23 11:12:20;;;;;;;17.75;5.10;;;;;;;18.14;100.00;100596.56;5030761;28;20044;-66
2022/10/23 11:14:46;;;;;;;18.15;5.28;;;;;;;18.02;100.00;100587.13;5030925;28;20115;-65